Time;durP1;ratioP1;P1;durP2;ratioP2;P2;SDS_P1;SDS_P2;PMS_P1;PMS_P2;Temp;Humidity;BMP_temperature;BMP_pressure;BME280_temperature;BME280_humidity;BME280_pressure;Samples;Min_cycle;Max_cycle;Signal;HPM_P1;HPM_P2
2023/07/30 00:02:19;;;;;;;0.30;0.20;;;;;;;;;;5032205;28;20029;-61
2023/07/30 00:04:46;;;;;;;1.03;0.70;;;;;;;;;;5031204;28;20033;-61
2023/07/30 00:07:13;;;;;;;12.17;1.20;;;;;;;;;;5009371;28;20036;-61
2023/07/30 00:09:40;;;;;;;2.10;1.17;;;;;;;;;;5027092;28;20029;-60
2023/07/30 00:12:07;;;;;;;1.57;0.83;;;;;;;;;;5027101;28;20468;-60
2023/07/30 00:14:34;;;;;;;25.87;1.27;;;;;;;;;;5023018;28;20076;-61
2023/07/30 00:17:03;;;;;;;3.97;1.50;;;;;;;;;;5020340;28;20473;-61
2023/07/30 00:19:30;;;;;;;6.13;1.27;;;;;;;;;;5012421;28;20022;-61
2023/07/30 00:21:57;;;;;;;1.77;0.73;;;;;;;;;;5029603;28;20037;-61
2023/07/30 00:24:24;;;;;;;5.73;0.93;;;;;;;;;;5008113;28;20045;-60
2023/07/30 00:26:51;;;;;;;0.93;0.60;;;;;;;;;;5011982;28;20104;-61
2023/07/30 00:29:18;;;;;;;1.40;0.60;;;;;;;;;;5007391;28;20029;-61
2023/07/30 00:31:44;;;;;;;0.23;0.17;;;;;;;;;;5007235;28;20416;-62
2023/07/30 00:34:11;;;;;;;0.83;0.63;;;;;;;;;;5023685;28;20025;-61
2023/07/30 00:36:38;;;;;;;1.10;0.37;;;;;;;;;;5026224;28;20034;-60
2023/07/30 00:39:05;;;;;;;0.90;0.50;;;;;;;;;;5028221;28;20490;-60
2023/07/30 00:41:32;;;;;;;1.40;0.67;;;;;;;;;;5032140;28;20059;-61
2023/07/30 00:43:58;;;;;;;3.97;1.10;;;;;;;;;;5031778;28;20554;-62
2023/07/30 00:46:25;;;;;;;2.67;0.80;;;;;;;;;;5032263;28;20025;-60
2023/07/30 00:48:52;;;;;;;3.90;0.83;;;;;;;;;;5031790;28;20408;-61
2023/07/30 00:51:20;;;;;;;0.80;0.40;;;;;;;;;;5026985;28;20059;-60
2023/07/30 00:53:47;;;;;;;3.20;0.67;;;;;;;;;;5026006;28;20028;-61
2023/07/30 00:56:15;;;;;;;1.13;0.77;;;;;;;;;;5026220;28;20037;-61
2023/07/30 00:58:42;;;;;;;1.17;0.60;;;;;;;;;;5026480;28;20036;-61
2023/07/30 01:01:08;;;;;;;2.27;0.93;;;;;;;;;;5031088;28;20136;-61
2023/07/30 01:03:35;;;;;;;1.03;0.57;;;;;;;;;;5031788;28;20088;-61
2023/07/30 01:06:02;;;;;;;1.40;0.80;;;;;;;;;;5031673;28;20025;-61
2023/07/30 01:08:29;;;;;;;2.77;0.70;;;;;;;;;;5031138;28;20026;-60
2023/07/30 01:10:57;;;;;;;1.23;0.60;;;;;;;;;;5026752;28;20027;-60
2023/07/30 01:13:23;;;;;;;1.07;0.90;;;;;;;;;;5027086;28;20025;-60
2023/07/30 01:15:50;;;;;;;6.97;1.90;;;;;;;;;;5026287;28;20026;-60
2023/07/30 01:18:17;;;;;;;2.53;1.50;;;;;;;;;;5026191;28;20369;-61
2023/07/30 01:20:44;;;;;;;2.67;1.20;;;;;;;;;;5025968;28;20824;-60
2023/07/30 01:23:11;;;;;;;3.77;1.53;;;;;;;;;;5030496;28;20381;-60
2023/07/30 01:25:38;;;;;;;3.37;1.40;;;;;;;;;;5031768;28;20474;-60
2023/07/30 01:28:07;;;;;;;1.30;0.80;;;;;;;;;;5031249;28;20369;-60
2023/07/30 01:30:36;;;;;;;1.53;0.80;;;;;;;;;;5031135;28;20044;-60
2023/07/30 01:33:04;;;;;;;3.00;1.17;;;;;;;;;;5031463;28;20030;-60
2023/07/30 01:35:32;;;;;;;2.80;1.27;;;;;;;;;;5027213;28;20053;-60
2023/07/30 01:38:02;;;;;;;4.57;1.33;;;;;;;;;;5025765;28;20037;-61
2023/07/30 01:40:28;;;;;;;2.33;1.33;;;;;;;;;;5026393;28;20033;-60
2023/07/30 01:42:55;;;;;;;1.50;0.93;;;;;;;;;;5021042;28;20033;-61
2023/07/30 01:45:22;;;;;;;2.23;1.00;;;;;;;;;;5030123;28;20091;-60
2023/07/30 01:47:49;;;;;;;0.47;0.47;;;;;;;;;;5031377;28;20030;-61
2023/07/30 01:50:16;;;;;;;1.87;1.03;;;;;;;;;;5031704;28;20064;-61
2023/07/30 01:52:43;;;;;;;2.87;0.80;;;;;;;;;;5033938;28;20025;-61
2023/07/30 01:55:10;;;;;;;0.87;0.77;;;;;;;;;;5034768;28;20104;-61
2023/07/30 01:57:36;;;;;;;1.03;0.80;;;;;;;;;;5030827;28;20048;-61
2023/07/30 02:00:03;;;;;;;1.40;0.83;;;;;;;;;;5029488;28;20022;-61
2023/07/30 02:02:30;;;;;;;0.77;0.53;;;;;;;;;;5029269;28;20041;-61
2023/07/30 02:04:57;;;;;;;0.60;0.60;;;;;;;;;;5029085;28;20129;-62
2023/07/30 02:07:23;;;;;;;1.57;1.00;;;;;;;;;;5032805;28;20028;-61
2023/07/30 02:09:50;;;;;;;1.27;0.90;;;;;;;;;;5033767;28;20036;-60
2023/07/30 02:12:17;;;;;;;5.87;1.03;;;;;;;;;;5034551;28;20029;-61
2023/07/30 02:14:44;;;;;;;1.80;1.10;;;;;;;;;;5034928;28;21126;-61
2023/07/30 02:17:11;;;;;;;1.80;1.00;;;;;;;;;;5019753;28;20057;-61
2023/07/30 02:19:37;;;;;;;2.33;1.03;;;;;;;;;;5011825;28;20026;-60
2023/07/30 02:22:04;;;;;;;3.87;1.43;;;;;;;;;;5023653;28;20113;-61
2023/07/30 02:24:31;;;;;;;2.57;1.30;;;;;;;;;;5026496;28;20033;-60
2023/07/30 02:26:58;;;;;;;3.50;1.23;;;;;;;;;;5029251;28;20119;-61
2023/07/30 02:29:25;;;;;;;2.03;1.03;;;;;;;;;;5031795;28;20029;-60
2023/07/30 02:31:51;;;;;;;1.53;1.10;;;;;;;;;;5030027;28;20029;-61
2023/07/30 02:34:18;;;;;;;1.83;1.20;;;;;;;;;;5032102;28;20064;-61
2023/07/30 02:36:45;;;;;;;2.10;1.10;;;;;;;;;;5030762;28;20104;-61
2023/07/30 02:39:12;;;;;;;3.83;1.47;;;;;;;;;;5024645;28;20014;-61
2023/07/30 02:41:39;;;;;;;1.40;1.10;;;;;;;;;;5029255;28;20024;-61
2023/07/30 02:44:05;;;;;;;2.80;0.90;;;;;;;;;;5009622;28;20042;-60
2023/07/30 02:46:32;;;;;;;0.73;0.70;;;;;;;;;;5025400;28;20030;-61
2023/07/30 02:48:59;;;;;;;1.30;0.73;;;;;;;;;;5013549;28;20030;-61
2023/07/30 02:51:29;;;;;;;1.87;1.10;;;;;;;;;;5019707;28;20029;-62
2023/07/30 02:53:59;;;;;;;1.30;0.90;;;;;;;;;;5014518;28;20037;-61
2023/07/30 02:56:26;;;;;;;0.60;0.47;;;;;;;;;;5014301;28;20057;-61
2023/07/30 02:58:53;;;;;;;1.53;0.80;;;;;;;;;;5017568;28;20028;-61
2023/07/30 03:01:19;;;;;;;1.20;0.80;;;;;;;;;;5033270;28;20598;-61
2023/07/30 03:03:46;;;;;;;1.17;0.90;;;;;;;;;;5030665;28;20044;-60
2023/07/30 03:06:14;;;;;;;2.73;0.87;;;;;;;;;;5024545;28;20034;-61
2023/07/30 03:08:40;;;;;;;0.93;0.53;;;;;;;;;;5027860;28;20029;-61
2023/07/30 03:11:07;;;;;;;1.77;0.87;;;;;;;;;;5019779;28;20080;-61
2023/07/30 03:13:34;;;;;;;0.53;0.43;;;;;;;;;;5010396;28;20030;-60
2023/07/30 03:16:01;;;;;;;1.10;0.90;;;;;;;;;;5029478;28;20018;-60
2023/07/30 03:18:28;;;;;;;1.47;0.80;;;;;;;;;;5028762;28;20040;-60
2023/07/30 03:21:01;;;;;;;1.30;0.83;;;;;;;;;;5015394;28;20061;-61
2023/07/30 03:23:28;;;;;;;0.47;0.47;;;;;;;;;;5032464;28;20108;-60
2023/07/30 03:25:55;;;;;;;1.10;0.63;;;;;;;;;;5028480;28;20154;-62
2023/07/30 03:28:21;;;;;;;1.90;0.77;;;;;;;;;;5027918;28;20048;-61
2023/07/30 03:30:48;;;;;;;2.17;0.80;;;;;;;;;;5027282;28;20033;-60
2023/07/30 03:33:15;;;;;;;0.53;0.50;;;;;;;;;;5026981;28;20035;-61
2023/07/30 03:35:42;;;;;;;0.93;0.60;;;;;;;;;;5027318;28;20033;-60
2023/07/30 03:38:09;;;;;;;1.07;0.80;;;;;;;;;;5032563;28;20032;-60
2023/07/30 03:40:36;;;;;;;0.93;0.60;;;;;;;;;;5032484;28;20029;-60
2023/07/30 03:43:03;;;;;;;0.83;0.53;;;;;;;;;;5022420;28;20025;-60
2023/07/30 03:45:30;;;;;;;0.53;0.43;;;;;;;;;;5023984;28;20042;-60
2023/07/30 03:47:57;;;;;;;1.60;0.77;;;;;;;;;;5019748;28;20037;-61
2023/07/30 03:50:23;;;;;;;2.20;1.20;;;;;;;;;;5011562;28;20030;-61
2023/07/30 03:52:50;;;;;;;1.33;0.80;;;;;;;;;;5008082;28;20499;-60
2023/07/30 03:55:17;;;;;;;0.97;0.77;;;;;;;;;;5007907;28;20468;-61
2023/07/30 03:57:44;;;;;;;0.40;0.40;;;;;;;;;;5008045;28;20053;-60
2023/07/30 04:00:11;;;;;;;1.97;0.93;;;;;;;;;;5025063;28;20123;-60
2023/07/30 04:02:38;;;;;;;0.83;0.60;;;;;;;;;;5031389;28;20034;-60
2023/07/30 04:05:05;;;;;;;0.70;0.50;;;;;;;;;;5031233;28;20029;-62
2023/07/30 04:07:31;;;;;;;1.80;0.93;;;;;;;;;;5013660;28;20022;-60
2023/07/30 04:09:58;;;;;;;0.87;0.67;;;;;;;;;;5015321;28;20060;-60
2023/07/30 04:12:25;;;;;;;2.03;1.17;;;;;;;;;;5007563;28;20030;-61
2023/07/30 04:14:52;;;;;;;3.00;0.80;;;;;;;;;;5010745;28;20032;-60
2023/07/30 04:17:19;;;;;;;1.17;0.80;;;;;;;;;;5010659;28;20029;-60
2023/07/30 04:19:46;;;;;;;0.90;0.60;;;;;;;;;;5019412;28;20026;-60
2023/07/30 04:22:13;;;;;;;0.73;0.53;;;;;;;;;;5030637;28;20032;-61
2023/07/30 04:24:40;;;;;;;0.87;0.57;;;;;;;;;;5027846;28;20124;-60
2023/07/30 04:27:06;;;;;;;1.43;0.93;;;;;;;;;;5020240;28;20026;-60
2023/07/30 04:29:33;;;;;;;3.23;0.93;;;;;;;;;;5020705;28;20028;-60
2023/07/30 04:32:00;;;;;;;0.60;0.40;;;;;;;;;;5020589;28;20168;-60
2023/07/30 04:34:27;;;;;;;1.80;0.90;;;;;;;;;;5014677;28;20041;-60
2023/07/30 04:36:54;;;;;;;1.20;0.70;;;;;;;;;;5025781;28;20666;-60
2023/07/30 04:39:21;;;;;;;7.10;0.70;;;;;;;;;;5022597;28;20506;-60
2023/07/30 04:41:47;;;;;;;1.27;0.83;;;;;;;;;;5025366;28;20495;-60
2023/07/30 04:44:15;;;;;;;3.80;1.13;;;;;;;;;;5030834;28;20041;-60
2023/07/30 04:46:42;;;;;;;0.70;0.50;;;;;;;;;;5031425;28;20479;-60
2023/07/30 04:49:08;;;;;;;2.30;1.33;;;;;;;;;;5031333;28;20032;-60
2023/07/30 04:51:35;;;;;;;2.80;0.90;;;;;;;;;;5032227;28;20101;-60
2023/07/30 04:54:02;;;;;;;2.23;0.77;;;;;;;;;;5032223;28;20107;-60
2023/07/30 04:56:29;;;;;;;0.97;0.43;;;;;;;;;;5026404;28;20026;-60
2023/07/30 04:58:56;;;;;;;1.40;0.83;;;;;;;;;;5027112;28;20028;-60
2023/07/30 05:01:25;;;;;;;2.00;0.70;;;;;;;;;;5026533;28;20033;-60
2023/07/30 05:03:51;;;;;;;3.10;0.93;;;;;;;;;;5026663;28;20168;-60
2023/07/30 05:06:18;;;;;;;1.40;0.67;;;;;;;;;;5030798;28;20044;-60
2023/07/30 05:08:45;;;;;;;1.10;0.60;;;;;;;;;;5032061;28;20075;-60
2023/07/30 05:11:12;;;;;;;3.37;1.03;;;;;;;;;;5031402;28;20026;-60
2023/07/30 05:13:39;;;;;;;1.53;0.70;;;;;;;;;;5031813;28;20108;-60
2023/07/30 05:16:05;;;;;;;0.60;0.50;;;;;;;;;;5032188;28;20028;-59
2023/07/30 05:18:32;;;;;;;1.37;0.47;;;;;;;;;;5026642;28;20033;-60
2023/07/30 05:20:59;;;;;;;1.60;0.63;;;;;;;;;;5026203;28;20540;-61
2023/07/30 05:23:26;;;;;;;0.97;0.40;;;;;;;;;;5026698;28;20087;-60
2023/07/30 05:25:52;;;;;;;10.70;0.80;;;;;;;;;;5026320;28;20041;-60
2023/07/30 05:28:19;;;;;;;0.33;0.27;;;;;;;;;;5034337;28;20079;-60
2023/07/30 05:30:46;;;;;;;0.73;0.53;;;;;;;;;;5034535;28;20029;-60
2023/07/30 05:33:13;;;;;;;0.40;0.37;;;;;;;;;;5035633;28;20075;-60
2023/07/30 05:35:39;;;;;;;1.10;0.77;;;;;;;;;;5035520;28;20030;-59
2023/07/30 05:38:06;;;;;;;0.10;0.10;;;;;;;;;;5035189;28;20484;-60
2023/07/30 05:40:33;;;;;;;7.97;0.90;;;;;;;;;;5031173;28;20029;-60
2023/07/30 05:43:00;;;;;;;1.13;0.67;;;;;;;;;;5030059;28;20033;-61
2023/07/30 05:45:27;;;;;;;2.63;0.97;;;;;;;;;;5029091;28;20131;-60
2023/07/30 05:47:54;;;;;;;0.30;0.30;;;;;;;;;;5030391;28;20548;-60
2023/07/30 05:50:21;;;;;;;0.40;0.30;;;;;;;;;;5031924;28;20079;-60
2023/07/30 05:52:47;;;;;;;0.50;0.30;;;;;;;;;;5016478;28;20021;-60
2023/07/30 05:55:14;;;;;;;2.00;0.53;;;;;;;;;;5015065;28;20159;-60
2023/07/30 05:57:41;;;;;;;0.20;0.20;;;;;;;;;;5015390;28;20377;-60
2023/07/30 06:00:11;;;;;;;1.13;0.40;;;;;;;;;;5028997;28;20199;-61
2023/07/30 06:02:38;;;;;;;0.10;0.10;;;;;;;;;;5028825;28;20236;-60
2023/07/30 06:05:05;;;;;;;0.80;0.57;;;;;;;;;;5029539;28;20033;-60
2023/07/30 06:07:32;;;;;;;1.20;0.67;;;;;;;;;;5029516;28;20037;-60
2023/07/30 06:09:59;;;;;;;0.90;0.57;;;;;;;;;;5029509;28;20025;-61
2023/07/30 06:12:26;;;;;;;0.37;0.30;;;;;;;;;;5032077;28;20022;-60
2023/07/30 06:14:52;;;;;;;0.67;0.30;;;;;;;;;;5035102;28;20074;-60
2023/07/30 06:17:19;;;;;;;0.30;0.30;;;;;;;;;;5034767;28;20021;-60
2023/07/30 06:19:46;;;;;;;0.70;0.40;;;;;;;;;;5034846;28;20025;-60
2023/07/30 06:22:13;;;;;;;0.40;0.40;;;;;;;;;;5034963;28;20156;-60
2023/07/30 06:24:39;;;;;;;0.80;0.50;;;;;;;;;;5031096;28;20034;-60
2023/07/30 06:27:06;;;;;;;0.93;0.60;;;;;;;;;;5009484;28;20033;-60
2023/07/30 06:29:33;;;;;;;1.13;0.87;;;;;;;;;;5009302;28;20424;-60
2023/07/30 06:32:00;;;;;;;1.10;0.63;;;;;;;;;;5009605;28;20111;-60
2023/07/30 06:34:26;;;;;;;1.40;0.83;;;;;;;;;;5012047;28;20073;-60
2023/07/30 06:36:53;;;;;;;1.07;0.77;;;;;;;;;;5017130;28;20029;-60
2023/07/30 06:39:21;;;;;;;1.33;0.80;;;;;;;;;;5034309;28;20424;-60
2023/07/30 06:41:48;;;;;;;1.80;1.50;;;;;;;;;;5034355;28;20406;-60
2023/07/30 06:44:15;;;;;;;2.10;1.17;;;;;;;;;;5034319;28;20412;-60
2023/07/30 06:46:42;;;;;;;2.13;1.10;;;;;;;;;;5031118;28;20017;-60
2023/07/30 06:49:09;;;;;;;3.47;1.57;;;;;;;;;;5028929;28;20018;-60
2023/07/30 06:51:36;;;;;;;1.07;0.67;;;;;;;;;;5028908;28;20104;-60
2023/07/30 06:54:02;;;;;;;1.33;0.90;;;;;;;;;;5028936;28;20224;-60
2023/07/30 06:56:29;;;;;;;0.73;0.57;;;;;;;;;;5031020;28;20099;-59
2023/07/30 06:58:56;;;;;;;0.90;0.70;;;;;;;;;;5034232;28;20444;-60
2023/07/30 07:01:23;;;;;;;1.27;0.90;;;;;;;;;;5033792;28;20025;-60
2023/07/30 07:03:49;;;;;;;4.43;0.60;;;;;;;;;;5033505;28;20053;-59
2023/07/30 07:06:16;;;;;;;1.80;0.47;;;;;;;;;;5033109;28;20038;-60
2023/07/30 07:08:43;;;;;;;0.40;0.40;;;;;;;;;;5031529;28;20030;-60
2023/07/30 07:11:10;;;;;;;2.47;0.60;;;;;;;;;;5028311;28;20034;-60
2023/07/30 07:13:37;;;;;;;0.93;0.47;;;;;;;;;;5028408;28;20073;-60
2023/07/30 07:16:04;;;;;;;0.70;0.63;;;;;;;;;;5028302;28;20029;-60
2023/07/30 07:18:30;;;;;;;0.10;0.10;;;;;;;;;;5029853;28;20049;-61
2023/07/30 07:20:57;;;;;;;0.70;0.30;;;;;;;;;;5033330;28;20022;-60
2023/07/30 07:23:24;;;;;;;0.30;0.20;;;;;;;;;;5033714;28;20022;-59
2023/07/30 07:25:52;;;;;;;0.90;0.60;;;;;;;;;;5033603;28;20033;-59
2023/07/30 07:28:19;;;;;;;0.83;0.40;;;;;;;;;;5033216;28;20065;-60
2023/07/30 07:30:46;;;;;;;0.40;0.30;;;;;;;;;;5031520;28;20115;-60
2023/07/30 07:33:13;;;;;;;0.93;0.50;;;;;;;;;;5028005;28;20029;-60
2023/07/30 07:35:40;;;;;;;0.63;0.33;;;;;;;;;;5028031;28;20022;-61
2023/07/30 07:38:07;;;;;;;0.50;0.37;;;;;;;;;;5027959;28;20026;-61
2023/07/30 07:40:39;;;;;;;0.77;0.43;;;;;;;;;;5028925;28;20025;-60
2023/07/30 07:43:06;;;;;;;0.47;0.33;;;;;;;;;;5033245;28;20373;-60
2023/07/30 07:45:33;;;;;;;0.43;0.30;;;;;;;;;;5033314;28;20036;-60
2023/07/30 07:48:00;;;;;;;0.50;0.33;;;;;;;;;;5033207;28;20025;-60
2023/07/30 07:50:27;;;;;;;0.17;0.17;;;;;;;;;;5032280;28;20070;-60
2023/07/30 07:52:53;;;;;;;0.40;0.20;;;;;;;;;;5031102;28;20060;-60
2023/07/30 07:55:20;;;;;;;0.37;0.27;;;;;;;;;;5027832;28;20033;-60
2023/07/30 07:57:47;;;;;;;0.37;0.30;;;;;;;;;;5027638;28;20029;-60
2023/07/30 08:00:14;;;;;;;0.43;0.37;;;;;;;;;;5027491;28;20032;-60
2023/07/30 08:02:40;;;;;;;0.30;0.30;;;;;;;;;;5028378;28;20049;-60
2023/07/30 08:05:08;;;;;;;0.43;0.30;;;;;;;;;;5032681;28;20037;-60
2023/07/30 08:07:34;;;;;;;0.37;0.17;;;;;;;;;;5032604;28;20037;-60
2023/07/30 08:10:01;;;;;;;0.20;0.20;;;;;;;;;;5032592;28;20021;-60
2023/07/30 08:12:28;;;;;;;1.80;0.57;;;;;;;;;;5032619;28;20031;-60
2023/07/30 08:14:56;;;;;;;1.20;0.50;;;;;;;;;;5031815;28;20029;-60
2023/07/30 08:17:22;;;;;;;0.97;0.60;;;;;;;;;;5009470;28;20113;-60
2023/07/30 08:19:49;;;;;;;1.70;0.73;;;;;;;;;;5027240;28;20411;-59
2023/07/30 08:22:16;;;;;;;0.90;0.60;;;;;;;;;;5027252;28;20029;-60
2023/07/30 08:24:43;;;;;;;0.50;0.40;;;;;;;;;;5026660;28;20527;-60
2023/07/30 08:27:09;;;;;;;0.67;0.30;;;;;;;;;;5032586;28;20022;-59
2023/07/30 08:29:36;;;;;;;0.20;0.20;;;;;;;;;;5032461;28;20041;-59
2023/07/30 08:32:03;;;;;;;2.20;0.50;;;;;;;;;;5032853;28;20113;-60
2023/07/30 08:34:30;;;;;;;0.83;0.63;;;;;;;;;;5032206;28;20029;-60
2023/07/30 08:36:57;;;;;;;0.97;0.40;;;;;;;;;;5031951;28;20044;-60
2023/07/30 08:39:23;;;;;;;0.40;0.37;;;;;;;;;;5026871;28;20483;-60
2023/07/30 08:41:50;;;;;;;0.30;0.20;;;;;;;;;;5026551;28;20029;-60
2023/07/30 08:44:17;;;;;;;0.67;0.53;;;;;;;;;;5026866;28;20075;-60
2023/07/30 08:46:44;;;;;;;19.23;0.63;;;;;;;;;;5027258;28;20068;-60
2023/07/30 08:49:10;;;;;;;0.20;0.20;;;;;;;;;;5031914;28;20056;-59
2023/07/30 08:51:38;;;;;;;0.70;0.57;;;;;;;;;;5032266;28;20060;-58
2023/07/30 08:54:04;;;;;;;0.20;0.20;;;;;;;;;;5032209;28;20053;-57
2023/07/30 08:56:32;;;;;;;0.67;0.50;;;;;;;;;;5032220;28;20057;-58
2023/07/30 08:58:59;;;;;;;0.33;0.23;;;;;;;;;;5031361;28;20445;-58
2023/07/30 09:01:31;;;;;;;0.30;0.20;;;;;;;;;;5029309;28;20030;-57
2023/07/30 09:04:00;;;;;;;1.33;0.50;;;;;;;;;;5030863;28;20054;-57
2023/07/30 09:06:27;;;;;;;0.70;0.50;;;;;;;;;;5030823;28;20486;-58
2023/07/30 09:08:54;;;;;;;1.13;0.53;;;;;;;;;;5030880;28;20088;-57
2023/07/30 09:11:20;;;;;;;0.10;0.10;;;;;;;;;;5035595;28;20025;-57
2023/07/30 09:13:47;;;;;;;0.53;0.47;;;;;;;;;;5035736;28;20053;-57
2023/07/30 09:16:15;;;;;;;1.10;0.50;;;;;;;;;;5035949;28;20032;-57
2023/07/30 09:18:49;;;;;;;0.60;0.33;;;;;;;;;;5036113;28;20033;-57
2023/07/30 09:21:15;;;;;;;0.50;0.37;;;;;;;;;;5035823;28;20048;-57
2023/07/30 09:23:42;;;;;;;0.10;0.10;;;;;;;;;;5030339;28;20112;-57
2023/07/30 09:26:09;;;;;;;0.30;0.30;;;;;;;;;;5030403;28;20034;-58
2023/07/30 09:28:36;;;;;;;0.20;0.20;;;;;;;;;;5030170;28;20029;-57
2023/07/30 09:31:04;;;;;;;0.10;0.10;;;;;;;;;;5030080;28;20041;-57
2023/07/30 09:33:32;;;;;;;0.23;0.20;;;;;;;;;;5034836;28;20025;-57
2023/07/30 09:36:02;;;;;;;0.20;0.20;;;;;;;;;;5035541;28;20029;-57
2023/07/30 09:38:30;;;;;;;1.40;0.40;;;;;;;;;;5035458;28;20032;-57
2023/07/30 09:41:04;;;;;;;0.10;0.10;;;;;;;;;;5035451;28;20052;-58
2023/07/30 09:43:33;;;;;;;0.23;0.13;;;;;;;;;;5015420;28;20113;-57
2023/07/30 09:46:07;;;;;;;0.00;0.00;;;;;;;;;;5010338;28;20030;-58
2023/07/30 09:48:34;;;;;;;0.20;0.20;;;;;;;;;;5010294;28;20026;-57
2023/07/30 09:51:02;;;;;;;0.27;0.20;;;;;;;;;;5010248;28;20134;-58
2023/07/30 09:53:36;;;;;;;0.37;0.20;;;;;;;;;;5015634;28;20029;-57
2023/07/30 09:56:03;;;;;;;0.20;0.20;;;;;;;;;;5035294;28;20025;-58
2023/07/30 09:58:30;;;;;;;0.20;0.20;;;;;;;;;;5035399;28;20033;-57
2023/07/30 10:01:01;;;;;;;0.10;0.10;;;;;;;;;;5035334;28;20018;-57
2023/07/30 10:03:28;;;;;;;0.10;0.10;;;;;;;;;;5035041;28;20035;-57
2023/07/30 10:06:00;;;;;;;0.50;0.23;;;;;;;;;;5034129;28;20506;-57
2023/07/30 10:08:29;;;;;;;0.43;0.17;;;;;;;;;;5029324;28;20024;-57
2023/07/30 10:10:56;;;;;;;0.00;0.00;;;;;;;;;;5029385;28;20040;-58
2023/07/30 10:13:24;;;;;;;0.77;0.40;;;;;;;;;;5029040;28;20811;-58
2023/07/30 10:15:52;;;;;;;0.37;0.27;;;;;;;;;;5029783;28;20037;-57
2023/07/30 10:18:20;;;;;;;0.10;0.10;;;;;;;;;;5034939;28;20549;-57
2023/07/30 10:20:57;;;;;;;0.10;0.10;;;;;;;;;;5034673;28;20022;-58
2023/07/30 10:23:28;;;;;;;0.20;0.20;;;;;;;;;;5035003;28;20396;-57
2023/07/30 10:25:56;;;;;;;0.37;0.10;;;;;;;;;;5034561;28;20540;-58
2023/07/30 10:28:37;;;;;;;0.30;0.20;;;;;;;;;;5033543;28;20414;-57
2023/07/30 10:31:08;;;;;;;0.70;0.30;;;;;;;;;;5029301;28;20029;-57
2023/07/30 10:33:48;;;;;;;0.17;0.13;;;;;;;;;;5028965;28;20014;-57
2023/07/30 10:36:17;;;;;;;0.20;0.10;;;;;;;;;;5029352;28;20071;-57
2023/07/30 10:38:44;;;;;;;0.43;0.30;;;;;;;;;;5031069;28;20035;-57
2023/07/30 10:41:13;;;;;;;0.37;0.10;;;;;;;;;;5034557;28;20469;-57
2023/07/30 10:43:41;;;;;;;0.20;0.10;;;;;;;;;;5034105;28;20028;-57
2023/07/30 10:46:08;;;;;;;0.30;0.20;;;;;;;;;;5034088;28;20048;-58
2023/07/30 10:48:36;;;;;;;0.40;0.30;;;;;;;;;;5034440;28;20388;-57
2023/07/30 10:51:04;;;;;;;0.37;0.23;;;;;;;;;;5031826;28;20026;-57
2023/07/30 10:53:31;;;;;;;0.20;0.20;;;;;;;;;;5029009;28;20617;-57
2023/07/30 10:56:02;;;;;;;0.03;0.03;;;;;;;;;;5028891;28;20021;-57
2023/07/30 10:58:33;;;;;;;1.03;0.07;;;;;;;;;;5028281;28;20060;-57
2023/07/30 11:01:00;;;;;;;0.73;0.37;;;;;;;;;;5030567;28;20064;-57
2023/07/30 11:03:27;;;;;;;0.13;0.13;;;;;;;;;;5034120;28;20071;-57
2023/07/30 11:05:54;;;;;;;1.80;0.50;;;;;;;;;;5033866;28;20471;-57
2023/07/30 11:08:33;;;;;;;0.00;0.00;;;;;;;;;;5033834;28;20021;-57
2023/07/30 11:11:00;;;;;;;0.20;0.17;;;;;;;;;;5033746;28;20426;-57
2023/07/30 11:13:27;;;;;;;0.00;0.00;;;;;;;;;;5031090;28;20029;-57
2023/07/30 11:15:54;;;;;;;0.33;0.17;;;;;;;;;;5028235;28;20067;-58
2023/07/30 11:18:21;;;;;;;0.77;0.20;;;;;;;;;;5028342;28;20108;-57
2023/07/30 11:20:49;;;;;;;0.00;0.00;;;;;;;;;;5028390;28;20088;-58
2023/07/30 11:23:23;;;;;;;0.73;0.33;;;;;;;;;;5030093;28;20498;-57
2023/07/30 11:25:50;;;;;;;0.90;0.50;;;;;;;;;;5032480;28;20083;-57
2023/07/30 11:28:36;;;;;;;0.37;0.30;;;;;;;;;;5033602;28;20022;-57
2023/07/30 11:31:06;;;;;;;0.38;0.30;;;;;;;;;;5033408;28;20037;-59
2023/07/30 11:33:34;;;;;;;0.40;0.30;;;;;;;;;;5033422;28;20028;-60
2023/07/30 11:36:03;;;;;;;0.63;0.40;;;;;;;;;;5029623;28;20025;-60
2023/07/30 11:38:30;;;;;;;0.10;0.10;;;;;;;;;;5028143;28;20033;-59
2023/07/30 11:40:58;;;;;;;0.93;0.27;;;;;;;;;;5028050;28;20025;-57
2023/07/30 11:43:25;;;;;;;7.37;0.37;;;;;;;;;;5027737;28;20030;-57
2023/07/30 11:46:10;;;;;;;0.00;0.00;;;;;;;;;;5030677;28;20530;-57
2023/07/30 11:48:37;;;;;;;0.98;0.30;;;;;;;;;;5032804;28;20022;-57
2023/07/30 11:51:04;;;;;;;0.00;0.00;;;;;;;;;;5033116;28;20105;-59
2023/07/30 11:53:49;;;;;;;0.13;0.13;;;;;;;;;;5032846;28;20025;-60
2023/07/30 11:56:19;;;;;;;0.15;0.15;;;;;;;;;;5032936;28;20056;-59
2023/07/30 11:58:47;;;;;;;0.10;0.10;;;;;;;;;;5028393;28;20091;-59
2023/07/30 12:01:15;;;;;;;0.47;0.37;;;;;;;;;;5027689;28;20072;-59
2023/07/30 12:03:41;;;;;;;0.30;0.17;;;;;;;;;;5027680;28;20033;-59
2023/07/30 12:06:08;;;;;;;0.10;0.10;;;;;;;;;;5027214;28;20033;-60
2023/07/30 12:08:36;;;;;;;2.77;0.90;;;;;;;;;;5031383;28;20029;-59
2023/07/30 12:11:06;;;;;;;0.60;0.27;;;;;;;;;;5032804;28;20033;-59
2023/07/30 12:13:33;;;;;;;9.10;1.37;;;;;;;;;;5032755;28;20032;-59
2023/07/30 12:16:00;;;;;;;0.70;0.30;;;;;;;;;;5032459;28;20049;-59
2023/07/30 12:18:28;;;;;;;1.07;0.33;;;;;;;;;;5032564;28;20040;-59
2023/07/30 12:20:56;;;;;;;0.30;0.23;;;;;;;;;;5028235;28;20083;-59
2023/07/30 12:23:23;;;;;;;0.37;0.30;;;;;;;;;;5027238;28;20084;-59
2023/07/30 12:25:49;;;;;;;2.27;0.70;;;;;;;;;;5027024;28;20037;-59
2023/07/30 12:28:16;;;;;;;1.77;1.00;;;;;;;;;;5009527;28;20354;-61
2023/07/30 12:30:43;;;;;;;2.20;1.10;;;;;;;;;;5030483;28;20412;-59
2023/07/30 12:33:10;;;;;;;2.23;1.10;;;;;;;;;;5032604;28;20033;-59
2023/07/30 12:35:37;;;;;;;1.00;0.60;;;;;;;;;;5032088;28;20021;-59
2023/07/30 12:38:03;;;;;;;3.00;1.17;;;;;;;;;;5032353;28;20029;-59
2023/07/30 12:40:33;;;;;;;1.03;0.67;;;;;;;;;;5032379;28;20114;-59
2023/07/30 12:43:03;;;;;;;4.70;1.00;;;;;;;;;;5027717;28;20492;-59
2023/07/30 12:45:33;;;;;;;1.13;0.60;;;;;;;;;;5026550;28;20480;-60
2023/07/30 12:48:01;;;;;;;2.77;0.57;;;;;;;;;;5027014;28;20119;-59
2023/07/30 12:50:28;;;;;;;1.03;0.60;;;;;;;;;;5026837;28;20017;-59
2023/07/30 12:52:54;;;;;;;1.30;0.73;;;;;;;;;;5030849;28;20044;-59
2023/07/30 12:55:21;;;;;;;1.33;0.60;;;;;;;;;;5032115;28;20029;-59
2023/07/30 12:57:50;;;;;;;1.67;0.47;;;;;;;;;;5031861;28;20136;-59
2023/07/30 13:00:17;;;;;;;1.37;0.57;;;;;;;;;;5031727;28;20034;-59
2023/07/30 13:02:44;;;;;;;1.00;0.50;;;;;;;;;;5032256;28;20026;-59
2023/07/30 13:05:13;;;;;;;1.00;0.60;;;;;;;;;;5027989;28;20033;-60
2023/07/30 13:07:40;;;;;;;1.07;0.47;;;;;;;;;;5026601;28;20048;-59
2023/07/30 13:10:08;;;;;;;2.90;0.77;;;;;;;;;;5026773;28;20029;-59
2023/07/30 13:12:34;;;;;;;0.87;0.50;;;;;;;;;;5026393;28;20064;-59
2023/07/30 13:15:02;;;;;;;0.30;0.30;;;;;;;;;;5030099;28;20037;-59
2023/07/30 13:17:29;;;;;;;1.90;0.97;;;;;;;;;;5031827;28;20022;-59
2023/07/30 13:19:56;;;;;;;1.90;1.10;;;;;;;;;;5032143;28;20396;-59
2023/07/30 13:22:22;;;;;;;2.03;1.27;;;;;;;;;;5031781;28;20034;-59
2023/07/30 13:24:49;;;;;;;5.23;1.70;;;;;;;;;;5031959;28;20030;-59
2023/07/30 13:27:16;;;;;;;0.90;0.70;;;;;;;;;;5027907;28;20026;-59
2023/07/30 13:29:43;;;;;;;3.37;1.43;;;;;;;;;;5026612;28;20025;-59
2023/07/30 13:32:10;;;;;;;1.30;0.70;;;;;;;;;;5025642;28;20472;-60
2023/07/30 13:34:36;;;;;;;0.63;0.50;;;;;;;;;;5026583;28;20104;-59
2023/07/30 13:37:03;;;;;;;1.80;0.63;;;;;;;;;;5029590;28;20033;-59
2023/07/30 13:39:30;;;;;;;3.90;1.57;;;;;;;;;;5031820;28;20024;-59
2023/07/30 13:41:57;;;;;;;2.87;1.37;;;;;;;;;;5031106;28;20404;-60
2023/07/30 13:44:24;;;;;;;3.07;1.23;;;;;;;;;;5030052;28;20064;-59
2023/07/30 13:46:51;;;;;;;1.07;0.90;;;;;;;;;;5031717;28;20104;-59
2023/07/30 13:49:18;;;;;;;1.90;1.17;;;;;;;;;;5031633;28;20032;-59
2023/07/30 13:51:44;;;;;;;1.37;0.60;;;;;;;;;;5029745;28;20025;-59
2023/07/30 13:54:11;;;;;;;1.43;0.73;;;;;;;;;;5029319;28;20083;-61
2023/07/30 13:56:38;;;;;;;1.27;0.77;;;;;;;;;;5010183;28;20034;-59
2023/07/30 13:59:05;;;;;;;1.07;0.40;;;;;;;;;;5013072;28;20018;-60
2023/07/30 14:01:32;;;;;;;0.10;0.10;;;;;;;;;;5015437;28;20014;-60
2023/07/30 14:03:59;;;;;;;10.47;0.60;;;;;;;;;;5029376;28;20072;-59
2023/07/30 14:06:26;;;;;;;0.87;0.50;;;;;;;;;;5034949;28;20033;-60
2023/07/30 14:08:52;;;;;;;0.20;0.10;;;;;;;;;;5035127;28;20026;-59
2023/07/30 14:11:19;;;;;;;0.37;0.37;;;;;;;;;;5031884;28;20029;-60
2023/07/30 14:13:46;;;;;;;2.33;0.83;;;;;;;;;;5029751;28;20028;-60
2023/07/30 14:16:13;;;;;;;5.33;1.10;;;;;;;;;;5029034;28;20064;-60
2023/07/30 14:18:40;;;;;;;2.70;0.87;;;;;;;;;;5029382;28;20031;-60
2023/07/30 14:21:06;;;;;;;1.33;0.83;;;;;;;;;;5031530;28;20025;-60
2023/07/30 14:23:33;;;;;;;0.97;0.53;;;;;;;;;;5034418;28;20025;-59
2023/07/30 14:26:00;;;;;;;1.20;0.60;;;;;;;;;;5034738;28;20039;-59
2023/07/30 14:28:27;;;;;;;0.70;0.50;;;;;;;;;;5032897;28;20029;-60
2023/07/30 14:30:54;;;;;;;0.93;0.70;;;;;;;;;;5034650;28;20025;-60
2023/07/30 14:33:20;;;;;;;1.13;0.70;;;;;;;;;;5031719;28;20021;-60
2023/07/30 14:35:47;;;;;;;0.20;0.10;;;;;;;;;;5027365;28;20026;-60
2023/07/30 14:38:14;;;;;;;1.33;0.50;;;;;;;;;;5029232;28;20434;-60
2023/07/30 14:40:43;;;;;;;0.70;0.30;;;;;;;;;;5024498;28;20033;-59
2023/07/30 14:43:10;;;;;;;0.63;0.40;;;;;;;;;;5027706;28;20393;-61
2023/07/30 19:29:19;;;;;;;0.60;0.40;;;;;;;;;;5983590;22;5710552;-58